Hauptseite
METAR-TAF:

METAR-TAF

Flughäfen :

St. Vincent, St. Vincent und die Grenadinen

Breite: 13-09-23N, Länge: 061-09-01W, Höhe: 41 m

Beobachtung

Neuester Wetterbericht von vor 3 Stunden und 48 Minuten, um 01:26 UTC
Wind 7 kt aus Nord/Nordost, Böen bis zu 24 kt
Temperatur 25°C
Luftfeuchtigkeit 79%
Luftdruck 1015 hPa
Sichtweite 10 km oder mehr
Durchbrochene Bewölkung in der Höhe von 1600 ft
Regenschauer,

METAR: TVSA 280126Z 03007G24KT 9999 -SHRA BKN016 25/21 Q1015

Zeit: 01:14 (05:14 UTC)

Prognose

Neuester Wetterbericht von vor 6 Stunden und 14 Minuten, um 23:00 UTC
Gültige Prognose vom 28 um 00 UTC bis 28 um 24 UTC
Wind 7 kt aus Nordost
Sichtweite 10 km oder mehr
Aufgelockert bewölkt in der Höhe von 1800 ft

TAF: TVSA 272300Z 2800/2824 04007KT 9999 SCT018

Wetterbeobachtungen und Prognosen von mehr als 4000 Flughäfen (METAR und TAF Bericht).

Die verfügbaren Stationen werden durch gelbe und rote Markierungen auf der Karte dargestellt.

Führen Sie die Maus auf sie, um den Namen der Station zu sehen.

Darauf klicken, um die Beobachtung von Wetterbeobachtungen und Prognosen zu sehen.

Um die Karte zu ändern : klicken Sie auf den grünen Tasten mit einem schwarzen Kreuz Zum Vergrößern, auf den grünen Button mit einem Gedankenstrich zu verkleinern, oder auf die grünen Pfeile für benachbarte Karten.


METAR-TAF: